Hauptseite
METAR-TAF:

METAR-TAF

Flughäfen :

Pian Rosa, Italien

Breite: 45-56N, Länge: 007-42E, Höhe: 3480 m

Beobachtung

Neuester Wetterbericht von vor 39 Minuten, um 13:55 UTC
Wind 4 kt aus West/Nordwest
Temperatur 4°C
Luftfeuchtigkeit 52%
Luftdruck 1030 hPa
Sichtweite 10 km oder mehr
Leicht bewölkt in der Höhe von 2000 ft

METAR: LIMH 111355Z 29004KT 9999 FEW020 04/M05 Q1030 RMK FEW MON LIB VAL NIL VIS MIN 9999

Zeit: 16:34 (14:34 UTC)


TAF: fehlend

Wetterbeobachtungen und Prognosen von mehr als 4000 Flughäfen (METAR und TAF Bericht).

Die verfügbaren Stationen werden durch gelbe und rote Markierungen auf der Karte dargestellt.

Führen Sie die Maus auf sie, um den Namen der Station zu sehen.

Darauf klicken, um die Beobachtung von Wetterbeobachtungen und Prognosen zu sehen.

Um die Karte zu ändern : klicken Sie auf den grünen Tasten mit einem schwarzen Kreuz Zum Vergrößern, auf den grünen Button mit einem Gedankenstrich zu verkleinern, oder auf die grünen Pfeile für benachbarte Karten.


METAR-TAF: